sensor_id;sensor_type;location;lat;lon;timestamp;P1;durP1;ratioP1;P2;durP2;ratioP2
52668;SDS011;59898;52.786;6.892;2023-01-25T00:03:06;41.25;;;28.55;;
52668;SDS011;59898;52.786;6.892;2023-01-25T00:06:26;43.13;;;29.13;;
52668;SDS011;59898;52.786;6.892;2023-01-25T00:09:47;45.63;;;29.40;;
52668;SDS011;59898;52.786;6.892;2023-01-25T00:13:08;44.47;;;29.00;;
52668;SDS011;59898;52.786;6.892;2023-01-25T00:16:29;45.47;;;29.42;;
52668;SDS011;59898;52.786;6.892;2023-01-25T00:19:49;43.88;;;31.27;;
52668;SDS011;59898;52.786;6.892;2023-01-25T00:23:10;46.53;;;31.05;;
52668;SDS011;59898;52.786;6.892;2023-01-25T00:26:34;41.63;;;28.60;;
52668;SDS011;59898;52.786;6.892;2023-01-25T00:29:55;48.30;;;31.38;;
52668;SDS011;59898;52.786;6.892;2023-01-25T00:39:56;45.83;;;29.83;;
52668;SDS011;59898;52.786;6.892;2023-01-25T00:43:17;44.83;;;30.67;;
52668;SDS011;59898;52.786;6.892;2023-01-25T00:46:38;42.63;;;30.88;;
52668;SDS011;59898;52.786;6.892;2023-01-25T00:49:59;47.30;;;31.17;;
52668;SDS011;59898;52.786;6.892;2023-01-25T00:53:19;50.92;;;33.33;;
52668;SDS011;59898;52.786;6.892;2023-01-25T00:56:40;47.55;;;32.95;;
52668;SDS011;59898;52.786;6.892;2023-01-25T01:00:01;47.10;;;33.78;;
52668;SDS011;59898;52.786;6.892;2023-01-25T01:03:21;47.83;;;34.33;;
52668;SDS011;59898;52.786;6.892;2023-01-25T01:06:42;48.90;;;36.17;;
52668;SDS011;59898;52.786;6.892;2023-01-25T01:10:03;44.67;;;32.85;;
52668;SDS011;59898;52.786;6.892;2023-01-25T01:13:25;43.30;;;32.13;;
52668;SDS011;59898;52.786;6.892;2023-01-25T01:16:46;48.63;;;35.50;;
52668;SDS011;59898;52.786;6.892;2023-01-25T01:20:07;43.15;;;33.28;;
52668;SDS011;59898;52.786;6.892;2023-01-25T01:23:28;45.53;;;33.75;;
52668;SDS011;59898;52.786;6.892;2023-01-25T01:26:49;47.72;;;34.83;;
52668;SDS011;59898;52.786;6.892;2023-01-25T01:30:10;47.97;;;36.28;;
52668;SDS011;59898;52.786;6.892;2023-01-25T01:33:31;44.83;;;33.33;;
52668;SDS011;59898;52.786;6.892;2023-01-25T01:36:52;44.00;;;35.40;;
52668;SDS011;59898;52.786;6.892;2023-01-25T01:40:13;46.20;;;36.13;;
52668;SDS011;59898;52.786;6.892;2023-01-25T01:43:34;48.15;;;37.00;;
52668;SDS011;59898;52.786;6.892;2023-01-25T01:46:56;43.72;;;35.17;;
52668;SDS011;59898;52.786;6.892;2023-01-25T01:50:19;44.10;;;33.60;;
52668;SDS011;59898;52.786;6.892;2023-01-25T01:53:46;43.63;;;34.70;;
52668;SDS011;59898;52.786;6.892;2023-01-25T01:57:17;44.08;;;33.40;;
52668;SDS011;59898;52.786;6.892;2023-01-25T02:00:51;44.53;;;32.28;;
52668;SDS011;59898;52.786;6.892;2023-01-25T02:04:12;45.78;;;32.40;;
52668;SDS011;59898;52.786;6.892;2023-01-25T02:07:35;44.15;;;31.45;;
52668;SDS011;59898;52.786;6.892;2023-01-25T02:10:57;45.80;;;33.88;;
52668;SDS011;59898;52.786;6.892;2023-01-25T02:14:19;50.65;;;32.90;;
52668;SDS011;59898;52.786;6.892;2023-01-25T02:17:41;47.05;;;32.50;;
52668;SDS011;59898;52.786;6.892;2023-01-25T02:21:02;49.33;;;32.75;;
52668;SDS011;59898;52.786;6.892;2023-01-25T02:24:24;49.88;;;32.80;;
52668;SDS011;59898;52.786;6.892;2023-01-25T02:27:53;53.15;;;33.53;;
52668;SDS011;59898;52.786;6.892;2023-01-25T02:31:44;47.15;;;31.45;;
52668;SDS011;59898;52.786;6.892;2023-01-25T02:35:16;54.10;;;33.40;;
52668;SDS011;59898;52.786;6.892;2023-01-25T02:38:42;47.17;;;31.58;;
52668;SDS011;59898;52.786;6.892;2023-01-25T02:42:07;48.28;;;31.75;;
52668;SDS011;59898;52.786;6.892;2023-01-25T02:45:28;45.42;;;31.98;;
52668;SDS011;59898;52.786;6.892;2023-01-25T02:48:49;45.53;;;32.85;;
52668;SDS011;59898;52.786;6.892;2023-01-25T02:52:10;46.80;;;30.38;;
52668;SDS011;59898;52.786;6.892;2023-01-25T02:55:30;49.92;;;32.58;;
52668;SDS011;59898;52.786;6.892;2023-01-25T02:58:51;48.88;;;32.22;;
52668;SDS011;59898;52.786;6.892;2023-01-25T03:02:13;47.15;;;32.58;;
52668;SDS011;59898;52.786;6.892;2023-01-25T03:05:33;48.50;;;32.05;;
52668;SDS011;59898;52.786;6.892;2023-01-25T03:08:54;46.90;;;31.75;;
52668;SDS011;59898;52.786;6.892;2023-01-25T03:12:14;47.00;;;31.27;;
52668;SDS011;59898;52.786;6.892;2023-01-25T03:15:35;42.67;;;27.50;;
52668;SDS011;59898;52.786;6.892;2023-01-25T03:18:56;45.30;;;29.23;;
52668;SDS011;59898;52.786;6.892;2023-01-25T03:22:16;43.97;;;28.65;;
52668;SDS011;59898;52.786;6.892;2023-01-25T03:25:37;44.33;;;30.20;;
52668;SDS011;59898;52.786;6.892;2023-01-25T03:28:58;49.30;;;29.17;;
52668;SDS011;59898;52.786;6.892;2023-01-25T03:32:18;41.58;;;28.13;;
52668;SDS011;59898;52.786;6.892;2023-01-25T03:35:39;40.53;;;27.48;;
52668;SDS011;59898;52.786;6.892;2023-01-25T03:39:00;44.25;;;28.20;;
52668;SDS011;59898;52.786;6.892;2023-01-25T03:42:20;41.35;;;27.33;;
52668;SDS011;59898;52.786;6.892;2023-01-25T03:49:12;47.47;;;30.35;;
52668;SDS011;59898;52.786;6.892;2023-01-25T03:52:33;44.60;;;28.48;;
52668;SDS011;59898;52.786;6.892;2023-01-25T03:56:01;47.88;;;30.50;;
52668;SDS011;59898;52.786;6.892;2023-01-25T03:59:27;49.92;;;30.60;;
52668;SDS011;59898;52.786;6.892;2023-01-25T04:02:47;50.78;;;32.55;;
52668;SDS011;59898;52.786;6.892;2023-01-25T04:06:08;50.15;;;34.42;;
52668;SDS011;59898;52.786;6.892;2023-01-25T04:09:29;47.67;;;29.55;;
52668;SDS011;59898;52.786;6.892;2023-01-25T04:12:49;48.42;;;30.88;;
52668;SDS011;59898;52.786;6.892;2023-01-25T04:16:10;51.17;;;31.77;;
52668;SDS011;59898;52.786;6.892;2023-01-25T04:19:31;54.10;;;31.55;;
52668;SDS011;59898;52.786;6.892;2023-01-25T04:22:52;55.28;;;33.10;;
52668;SDS011;59898;52.786;6.892;2023-01-25T04:26:12;53.88;;;35.50;;
52668;SDS011;59898;52.786;6.892;2023-01-25T04:29:34;54.00;;;33.30;;
52668;SDS011;59898;52.786;6.892;2023-01-25T04:32:55;51.22;;;32.72;;
52668;SDS011;59898;52.786;6.892;2023-01-25T04:36:15;58.63;;;36.72;;
52668;SDS011;59898;52.786;6.892;2023-01-25T04:39:36;54.78;;;33.95;;
52668;SDS011;59898;52.786;6.892;2023-01-25T04:42:57;57.47;;;34.78;;
52668;SDS011;59898;52.786;6.892;2023-01-25T04:46:18;53.95;;;34.38;;
52668;SDS011;59898;52.786;6.892;2023-01-25T04:49:38;54.33;;;34.65;;
52668;SDS011;59898;52.786;6.892;2023-01-25T04:52:59;49.08;;;32.22;;
52668;SDS011;59898;52.786;6.892;2023-01-25T04:56:20;46.38;;;30.70;;
52668;SDS011;59898;52.786;6.892;2023-01-25T04:59:40;49.72;;;30.58;;
52668;SDS011;59898;52.786;6.892;2023-01-25T05:03:01;47.50;;;29.98;;
52668;SDS011;59898;52.786;6.892;2023-01-25T05:06:22;49.28;;;29.88;;
52668;SDS011;59898;52.786;6.892;2023-01-25T05:09:43;47.40;;;31.92;;
52668;SDS011;59898;52.786;6.892;2023-01-25T05:13:03;42.50;;;28.05;;
52668;SDS011;59898;52.786;6.892;2023-01-25T05:16:25;44.50;;;28.08;;
52668;SDS011;59898;52.786;6.892;2023-01-25T05:19:45;40.10;;;28.02;;
52668;SDS011;59898;52.786;6.892;2023-01-25T05:23:06;44.53;;;29.15;;
52668;SDS011;59898;52.786;6.892;2023-01-25T05:26:27;41.50;;;26.48;;
52668;SDS011;59898;52.786;6.892;2023-01-25T05:30:06;40.85;;;26.95;;
52668;SDS011;59898;52.786;6.892;2023-01-25T05:33:27;45.45;;;28.63;;
52668;SDS011;59898;52.786;6.892;2023-01-25T05:36:48;41.83;;;26.77;;
52668;SDS011;59898;52.786;6.892;2023-01-25T05:40:09;40.55;;;27.20;;
52668;SDS011;59898;52.786;6.892;2023-01-25T05:43:30;41.70;;;29.17;;
52668;SDS011;59898;52.786;6.892;2023-01-25T05:46:50;39.25;;;26.35;;
52668;SDS011;59898;52.786;6.892;2023-01-25T05:50:11;42.47;;;27.40;;
52668;SDS011;59898;52.786;6.892;2023-01-25T05:53:32;42.72;;;27.13;;
52668;SDS011;59898;52.786;6.892;2023-01-25T05:56:53;43.33;;;28.08;;
52668;SDS011;59898;52.786;6.892;2023-01-25T06:00:13;43.10;;;27.92;;
52668;SDS011;59898;52.786;6.892;2023-01-25T06:03:34;43.13;;;28.73;;
52668;SDS011;59898;52.786;6.892;2023-01-25T06:06:55;41.17;;;26.85;;
52668;SDS011;59898;52.786;6.892;2023-01-25T06:10:16;44.17;;;29.58;;
52668;SDS011;59898;52.786;6.892;2023-01-25T06:13:36;43.92;;;28.58;;
52668;SDS011;59898;52.786;6.892;2023-01-25T06:16:57;43.03;;;27.73;;
52668;SDS011;59898;52.786;6.892;2023-01-25T06:20:18;41.53;;;28.88;;
52668;SDS011;59898;52.786;6.892;2023-01-25T06:23:39;44.28;;;27.63;;
52668;SDS011;59898;52.786;6.892;2023-01-25T06:27:00;42.13;;;26.85;;
52668;SDS011;59898;52.786;6.892;2023-01-25T06:30:20;43.35;;;27.42;;
52668;SDS011;59898;52.786;6.892;2023-01-25T06:33:41;41.20;;;27.67;;
52668;SDS011;59898;52.786;6.892;2023-01-25T06:37:03;41.63;;;27.80;;
52668;SDS011;59898;52.786;6.892;2023-01-25T06:40:24;44.30;;;29.33;;
52668;SDS011;59898;52.786;6.892;2023-01-25T06:43:45;45.35;;;28.30;;
52668;SDS011;59898;52.786;6.892;2023-01-25T06:47:10;46.45;;;28.13;;
52668;SDS011;59898;52.786;6.892;2023-01-25T06:50:31;42.20;;;27.10;;
52668;SDS011;59898;52.786;6.892;2023-01-25T06:53:52;42.75;;;28.02;;
52668;SDS011;59898;52.786;6.892;2023-01-25T06:57:13;39.53;;;27.02;;
52668;SDS011;59898;52.786;6.892;2023-01-25T07:00:34;40.35;;;25.98;;
52668;SDS011;59898;52.786;6.892;2023-01-25T07:03:56;39.42;;;25.50;;
52668;SDS011;59898;52.786;6.892;2023-01-25T07:07:17;39.25;;;26.38;;
52668;SDS011;59898;52.786;6.892;2023-01-25T07:10:38;38.35;;;25.30;;
52668;SDS011;59898;52.786;6.892;2023-01-25T07:13:59;35.75;;;24.65;;
52668;SDS011;59898;52.786;6.892;2023-01-25T07:17:20;37.95;;;23.15;;
52668;SDS011;59898;52.786;6.892;2023-01-25T07:20:40;39.75;;;24.38;;
52668;SDS011;59898;52.786;6.892;2023-01-25T07:24:02;33.22;;;23.48;;
52668;SDS011;59898;52.786;6.892;2023-01-25T07:27:23;35.83;;;23.85;;
52668;SDS011;59898;52.786;6.892;2023-01-25T07:30:44;31.75;;;22.33;;
52668;SDS011;59898;52.786;6.892;2023-01-25T07:34:05;34.38;;;21.88;;
52668;SDS011;59898;52.786;6.892;2023-01-25T07:37:26;35.55;;;23.00;;
52668;SDS011;59898;52.786;6.892;2023-01-25T07:40:50;34.92;;;23.50;;
52668;SDS011;59898;52.786;6.892;2023-01-25T07:44:12;33.22;;;22.42;;
52668;SDS011;59898;52.786;6.892;2023-01-25T07:47:33;34.97;;;22.42;;
52668;SDS011;59898;52.786;6.892;2023-01-25T07:50:56;33.00;;;22.52;;
52668;SDS011;59898;52.786;6.892;2023-01-25T07:54:30;37.33;;;24.70;;
52668;SDS011;59898;52.786;6.892;2023-01-25T07:57:54;35.42;;;23.95;;
52668;SDS011;59898;52.786;6.892;2023-01-25T08:01:15;32.35;;;22.30;;
52668;SDS011;59898;52.786;6.892;2023-01-25T08:04:37;33.85;;;23.00;;
52668;SDS011;59898;52.786;6.892;2023-01-25T08:07:58;30.33;;;21.73;;
52668;SDS011;59898;52.786;6.892;2023-01-25T08:11:20;29.95;;;20.33;;
52668;SDS011;59898;52.786;6.892;2023-01-25T08:14:43;32.28;;;22.08;;
52668;SDS011;59898;52.786;6.892;2023-01-25T08:18:03;31.95;;;22.45;;
52668;SDS011;59898;52.786;6.892;2023-01-25T08:21:24;32.78;;;23.13;;
52668;SDS011;59898;52.786;6.892;2023-01-25T08:24:49;32.60;;;22.15;;
52668;SDS011;59898;52.786;6.892;2023-01-25T08:28:09;31.67;;;21.75;;
52668;SDS011;59898;52.786;6.892;2023-01-25T08:31:31;32.60;;;21.67;;
52668;SDS011;59898;52.786;6.892;2023-01-25T08:34:53;34.70;;;24.67;;
52668;SDS011;59898;52.786;6.892;2023-01-25T08:38:13;34.80;;;23.27;;
52668;SDS011;59898;52.786;6.892;2023-01-25T08:41:34;35.45;;;25.02;;
52668;SDS011;59898;52.786;6.892;2023-01-25T08:44:55;33.58;;;23.00;;
52668;SDS011;59898;52.786;6.892;2023-01-25T08:48:16;35.03;;;21.73;;
52668;SDS011;59898;52.786;6.892;2023-01-25T08:51:36;34.08;;;21.60;;
52668;SDS011;59898;52.786;6.892;2023-01-25T08:54:57;32.95;;;21.95;;
52668;SDS011;59898;52.786;6.892;2023-01-25T08:58:18;33.50;;;21.40;;
52668;SDS011;59898;52.786;6.892;2023-01-25T09:01:41;33.05;;;22.83;;
52668;SDS011;59898;52.786;6.892;2023-01-25T09:05:01;34.85;;;22.52;;
52668;SDS011;59898;52.786;6.892;2023-01-25T09:08:22;34.83;;;23.85;;
52668;SDS011;59898;52.786;6.892;2023-01-25T09:11:43;37.65;;;24.90;;
52668;SDS011;59898;52.786;6.892;2023-01-25T09:15:04;40.08;;;25.73;;
52668;SDS011;59898;52.786;6.892;2023-01-25T09:18:25;34.50;;;24.27;;
52668;SDS011;59898;52.786;6.892;2023-01-25T09:21:47;41.33;;;24.88;;
52668;SDS011;59898;52.786;6.892;2023-01-25T09:25:07;42.35;;;27.83;;
52668;SDS011;59898;52.786;6.892;2023-01-25T09:28:28;39.85;;;24.88;;
52668;SDS011;59898;52.786;6.892;2023-01-25T09:31:50;37.10;;;24.77;;
52668;SDS011;59898;52.786;6.892;2023-01-25T09:35:11;39.05;;;26.92;;
52668;SDS011;59898;52.786;6.892;2023-01-25T09:38:32;42.40;;;28.55;;
52668;SDS011;59898;52.786;6.892;2023-01-25T09:45:42;40.80;;;27.30;;
52668;SDS011;59898;52.786;6.892;2023-01-25T09:49:05;40.95;;;27.38;;
52668;SDS011;59898;52.786;6.892;2023-01-25T09:53:04;43.15;;;28.48;;
52668;SDS011;59898;52.786;6.892;2023-01-25T09:56:39;37.83;;;27.20;;
52668;SDS011;59898;52.786;6.892;2023-01-25T10:00:02;40.00;;;26.83;;
52668;SDS011;59898;52.786;6.892;2023-01-25T10:03:53;39.67;;;25.80;;
52668;SDS011;59898;52.786;6.892;2023-01-25T10:07:42;41.85;;;28.45;;
52668;SDS011;59898;52.786;6.892;2023-01-25T10:11:22;40.78;;;27.92;;
52668;SDS011;59898;52.786;6.892;2023-01-25T10:14:44;41.10;;;29.85;;
52668;SDS011;59898;52.786;6.892;2023-01-25T10:21:58;41.55;;;31.58;;
52668;SDS011;59898;52.786;6.892;2023-01-25T10:29:10;38.97;;;29.08;;
52668;SDS011;59898;52.786;6.892;2023-01-25T10:32:38;40.63;;;28.25;;
52668;SDS011;59898;52.786;6.892;2023-01-25T10:36:00;48.95;;;30.35;;
52668;SDS011;59898;52.786;6.892;2023-01-25T10:39:23;39.15;;;26.92;;
52668;SDS011;59898;52.786;6.892;2023-01-25T10:42:47;42.33;;;28.20;;
52668;SDS011;59898;52.786;6.892;2023-01-25T10:46:19;39.67;;;26.65;;
52668;SDS011;59898;52.786;6.892;2023-01-25T10:49:46;37.92;;;27.02;;
52668;SDS011;59898;52.786;6.892;2023-01-25T10:56:50;35.97;;;26.42;;
52668;SDS011;59898;52.786;6.892;2023-01-25T11:00:56;37.85;;;27.45;;
52668;SDS011;59898;52.786;6.892;2023-01-25T11:03:57;38.10;;;27.85;;
52668;SDS011;59898;52.786;6.892;2023-01-25T11:07:26;34.28;;;23.67;;
52668;SDS011;59898;52.786;6.892;2023-01-25T11:10:48;33.83;;;24.27;;
52668;SDS011;59898;52.786;6.892;2023-01-25T11:14:16;36.42;;;28.15;;
52668;SDS011;59898;52.786;6.892;2023-01-25T11:17:37;41.28;;;28.50;;
52668;SDS011;59898;52.786;6.892;2023-01-25T11:21:05;39.83;;;26.88;;
52668;SDS011;59898;52.786;6.892;2023-01-25T11:24:32;36.10;;;26.10;;
52668;SDS011;59898;52.786;6.892;2023-01-25T11:28:10;40.17;;;28.08;;
52668;SDS011;59898;52.786;6.892;2023-01-25T11:31:35;43.15;;;29.80;;
52668;SDS011;59898;52.786;6.892;2023-01-25T11:34:57;45.15;;;28.85;;
52668;SDS011;59898;52.786;6.892;2023-01-25T11:38:18;40.40;;;26.00;;
52668;SDS011;59898;52.786;6.892;2023-01-25T11:49:17;40.63;;;26.30;;
52668;SDS011;59898;52.786;6.892;2023-01-25T12:03:24;40.72;;;26.75;;
52668;SDS011;59898;52.786;6.892;2023-01-25T12:18:12;39.65;;;24.48;;
52668;SDS011;59898;52.786;6.892;2023-01-25T12:29:17;35.53;;;22.88;;
52668;SDS011;59898;52.786;6.892;2023-01-25T12:36:30;38.88;;;23.42;;
52668;SDS011;59898;52.786;6.892;2023-01-25T12:39:56;35.88;;;23.52;;
52668;SDS011;59898;52.786;6.892;2023-01-25T12:43:22;44.03;;;26.23;;
52668;SDS011;59898;52.786;6.892;2023-01-25T12:50:30;37.10;;;22.30;;
52668;SDS011;59898;52.786;6.892;2023-01-25T12:54:05;38.00;;;23.90;;
52668;SDS011;59898;52.786;6.892;2023-01-25T13:04:42;44.28;;;27.73;;
52668;SDS011;59898;52.786;6.892;2023-01-25T13:11:58;39.53;;;23.77;;
52668;SDS011;59898;52.786;6.892;2023-01-25T13:15:36;39.33;;;23.52;;
52668;SDS011;59898;52.786;6.892;2023-01-25T13:19:12;37.95;;;24.65;;
52668;SDS011;59898;52.786;6.892;2023-01-25T13:29:42;39.33;;;22.83;;
52668;SDS011;59898;52.786;6.892;2023-01-25T13:33:06;40.58;;;22.33;;
52668;SDS011;59898;52.786;6.892;2023-01-25T13:40:03;44.00;;;24.45;;
52668;SDS011;59898;52.786;6.892;2023-01-25T13:43:45;42.33;;;24.50;;
52668;SDS011;59898;52.786;6.892;2023-01-25T13:47:11;42.05;;;26.58;;
52668;SDS011;59898;52.786;6.892;2023-01-25T13:50:36;41.00;;;25.45;;
52668;SDS011;59898;52.786;6.892;2023-01-25T13:54:02;43.33;;;27.65;;
52668;SDS011;59898;52.786;6.892;2023-01-25T13:57:24;45.35;;;26.25;;
52668;SDS011;59898;52.786;6.892;2023-01-25T14:00:51;44.38;;;25.10;;
52668;SDS011;59898;52.786;6.892;2023-01-25T14:04:14;55.72;;;25.70;;
52668;SDS011;59898;52.786;6.892;2023-01-25T14:07:35;43.72;;;26.25;;
52668;SDS011;59898;52.786;6.892;2023-01-25T14:10:56;42.33;;;24.85;;
52668;SDS011;59898;52.786;6.892;2023-01-25T14:17:44;44.20;;;26.20;;
52668;SDS011;59898;52.786;6.892;2023-01-25T14:21:10;39.83;;;22.73;;
52668;SDS011;59898;52.786;6.892;2023-01-25T14:24:34;39.92;;;23.42;;
52668;SDS011;59898;52.786;6.892;2023-01-25T14:27:56;44.60;;;24.73;;
52668;SDS011;59898;52.786;6.892;2023-01-25T14:31:20;40.92;;;23.70;;
52668;SDS011;59898;52.786;6.892;2023-01-25T14:34:43;41.63;;;24.65;;
52668;SDS011;59898;52.786;6.892;2023-01-25T14:38:23;48.75;;;27.48;;
52668;SDS011;59898;52.786;6.892;2023-01-25T14:41:46;44.08;;;27.20;;
52668;SDS011;59898;52.786;6.892;2023-01-25T14:45:11;43.10;;;25.58;;
52668;SDS011;59898;52.786;6.892;2023-01-25T14:55:19;43.97;;;25.73;;
52668;SDS011;59898;52.786;6.892;2023-01-25T14:58:40;44.28;;;26.70;;
52668;SDS011;59898;52.786;6.892;2023-01-25T15:05:46;37.22;;;22.65;;
52668;SDS011;59898;52.786;6.892;2023-01-25T15:09:28;43.72;;;26.60;;
52668;SDS011;59898;52.786;6.892;2023-01-25T15:16:18;44.70;;;26.10;;
52668;SDS011;59898;52.786;6.892;2023-01-25T15:19:54;43.88;;;27.40;;
52668;SDS011;59898;52.786;6.892;2023-01-25T15:23:22;50.88;;;27.83;;
52668;SDS011;59898;52.786;6.892;2023-01-25T15:26:47;44.35;;;26.92;;
52668;SDS011;59898;52.786;6.892;2023-01-25T15:30:12;46.30;;;27.60;;
52668;SDS011;59898;52.786;6.892;2023-01-25T15:33:34;49.70;;;28.83;;
52668;SDS011;59898;52.786;6.892;2023-01-25T15:36:55;52.70;;;29.23;;
52668;SDS011;59898;52.786;6.892;2023-01-25T15:40:16;53.10;;;31.67;;
52668;SDS011;59898;52.786;6.892;2023-01-25T15:43:36;54.05;;;34.70;;
52668;SDS011;59898;52.786;6.892;2023-01-25T15:46:57;48.80;;;33.00;;
52668;SDS011;59898;52.786;6.892;2023-01-25T15:50:18;55.45;;;37.90;;
52668;SDS011;59898;52.786;6.892;2023-01-25T15:53:39;48.33;;;32.03;;
52668;SDS011;59898;52.786;6.892;2023-01-25T15:57:00;54.40;;;35.35;;
52668;SDS011;59898;52.786;6.892;2023-01-25T16:00:20;50.28;;;32.53;;
52668;SDS011;59898;52.786;6.892;2023-01-25T16:03:42;50.92;;;31.95;;
52668;SDS011;59898;52.786;6.892;2023-01-25T16:07:03;48.33;;;30.73;;
52668;SDS011;59898;52.786;6.892;2023-01-25T16:10:24;49.85;;;30.55;;
52668;SDS011;59898;52.786;6.892;2023-01-25T16:13:45;52.33;;;31.77;;
52668;SDS011;59898;52.786;6.892;2023-01-25T16:17:05;50.85;;;30.83;;
52668;SDS011;59898;52.786;6.892;2023-01-25T16:20:34;52.28;;;29.52;;
52668;SDS011;59898;52.786;6.892;2023-01-25T16:23:54;55.60;;;32.08;;
52668;SDS011;59898;52.786;6.892;2023-01-25T16:27:16;53.40;;;31.40;;
52668;SDS011;59898;52.786;6.892;2023-01-25T16:30:44;52.63;;;30.77;;
52668;SDS011;59898;52.786;6.892;2023-01-25T16:34:05;49.08;;;32.15;;
52668;SDS011;59898;52.786;6.892;2023-01-25T16:37:26;53.15;;;32.13;;
52668;SDS011;59898;52.786;6.892;2023-01-25T16:40:46;49.03;;;30.15;;
52668;SDS011;59898;52.786;6.892;2023-01-25T16:44:07;52.38;;;30.17;;
52668;SDS011;59898;52.786;6.892;2023-01-25T16:47:27;58.20;;;33.42;;
52668;SDS011;59898;52.786;6.892;2023-01-25T16:50:49;53.72;;;32.15;;
52668;SDS011;59898;52.786;6.892;2023-01-25T16:54:10;56.55;;;32.38;;
52668;SDS011;59898;52.786;6.892;2023-01-25T16:57:31;55.03;;;31.33;;
52668;SDS011;59898;52.786;6.892;2023-01-25T17:00:52;55.83;;;31.00;;
52668;SDS011;59898;52.786;6.892;2023-01-25T17:04:13;60.80;;;31.75;;
52668;SDS011;59898;52.786;6.892;2023-01-25T17:07:34;54.42;;;29.48;;
52668;SDS011;59898;52.786;6.892;2023-01-25T17:10:55;57.75;;;31.85;;
52668;SDS011;59898;52.786;6.892;2023-01-25T17:14:21;63.67;;;33.03;;
52668;SDS011;59898;52.786;6.892;2023-01-25T17:17:42;59.05;;;30.02;;
52668;SDS011;59898;52.786;6.892;2023-01-25T17:21:04;58.92;;;29.90;;
52668;SDS011;59898;52.786;6.892;2023-01-25T17:27:56;54.78;;;29.58;;
52668;SDS011;59898;52.786;6.892;2023-01-25T17:31:18;61.63;;;30.92;;
52668;SDS011;59898;52.786;6.892;2023-01-25T17:34:41;58.67;;;32.83;;
52668;SDS011;59898;52.786;6.892;2023-01-25T17:38:01;57.17;;;30.98;;
52668;SDS011;59898;52.786;6.892;2023-01-25T17:41:22;65.55;;;34.53;;
52668;SDS011;59898;52.786;6.892;2023-01-25T17:44:44;62.80;;;31.90;;
52668;SDS011;59898;52.786;6.892;2023-01-25T17:48:05;66.32;;;36.75;;
52668;SDS011;59898;52.786;6.892;2023-01-25T17:51:28;73.65;;;39.55;;
52668;SDS011;59898;52.786;6.892;2023-01-25T17:54:50;60.40;;;32.25;;
52668;SDS011;59898;52.786;6.892;2023-01-25T17:58:11;72.85;;;33.90;;
52668;SDS011;59898;52.786;6.892;2023-01-25T18:01:31;71.28;;;37.75;;
52668;SDS011;59898;52.786;6.892;2023-01-25T18:04:52;88.43;;;43.85;;
52668;SDS011;59898;52.786;6.892;2023-01-25T18:08:13;81.45;;;39.70;;
52668;SDS011;59898;52.786;6.892;2023-01-25T18:11:34;90.50;;;46.50;;
52668;SDS011;59898;52.786;6.892;2023-01-25T18:14:56;83.37;;;43.10;;
52668;SDS011;59898;52.786;6.892;2023-01-25T18:18:16;89.10;;;46.85;;
52668;SDS011;59898;52.786;6.892;2023-01-25T18:21:37;78.75;;;40.05;;
52668;SDS011;59898;52.786;6.892;2023-01-25T18:25:00;91.07;;;44.78;;
52668;SDS011;59898;52.786;6.892;2023-01-25T18:28:21;92.70;;;45.42;;
52668;SDS011;59898;52.786;6.892;2023-01-25T18:31:42;102.60;;;50.67;;
52668;SDS011;59898;52.786;6.892;2023-01-25T18:35:04;112.43;;;51.83;;
52668;SDS011;59898;52.786;6.892;2023-01-25T18:38:25;102.28;;;52.60;;
52668;SDS011;59898;52.786;6.892;2023-01-25T18:41:46;93.72;;;47.35;;
52668;SDS011;59898;52.786;6.892;2023-01-25T18:45:08;103.00;;;53.03;;
52668;SDS011;59898;52.786;6.892;2023-01-25T18:48:29;94.90;;;50.10;;
52668;SDS011;59898;52.786;6.892;2023-01-25T18:51:50;104.30;;;49.35;;
52668;SDS011;59898;52.786;6.892;2023-01-25T18:55:11;88.95;;;45.22;;
52668;SDS011;59898;52.786;6.892;2023-01-25T18:58:32;84.53;;;41.17;;
52668;SDS011;59898;52.786;6.892;2023-01-25T19:01:54;84.68;;;42.72;;
52668;SDS011;59898;52.786;6.892;2023-01-25T19:05:16;97.70;;;48.08;;
52668;SDS011;59898;52.786;6.892;2023-01-25T19:08:38;92.30;;;44.05;;
52668;SDS011;59898;52.786;6.892;2023-01-25T19:12:00;96.53;;;45.30;;
52668;SDS011;59898;52.786;6.892;2023-01-25T19:15:21;95.88;;;45.63;;
52668;SDS011;59898;52.786;6.892;2023-01-25T19:18:43;99.68;;;46.72;;
52668;SDS011;59898;52.786;6.892;2023-01-25T19:22:06;97.13;;;42.47;;
52668;SDS011;59898;52.786;6.892;2023-01-25T19:25:26;98.20;;;44.45;;
52668;SDS011;59898;52.786;6.892;2023-01-25T19:28:49;94.40;;;43.35;;
52668;SDS011;59898;52.786;6.892;2023-01-25T19:32:11;89.78;;;42.38;;
52668;SDS011;59898;52.786;6.892;2023-01-25T19:35:31;89.05;;;38.17;;
52668;SDS011;59898;52.786;6.892;2023-01-25T19:38:52;90.15;;;41.20;;
52668;SDS011;59898;52.786;6.892;2023-01-25T19:42:14;98.43;;;46.47;;
52668;SDS011;59898;52.786;6.892;2023-01-25T19:45:35;75.05;;;35.58;;
52668;SDS011;59898;52.786;6.892;2023-01-25T19:48:56;104.75;;;44.65;;
52668;SDS011;59898;52.786;6.892;2023-01-25T19:52:17;88.75;;;40.22;;
52668;SDS011;59898;52.786;6.892;2023-01-25T19:55:38;91.32;;;38.08;;
52668;SDS011;59898;52.786;6.892;2023-01-25T19:59:00;87.43;;;40.35;;
52668;SDS011;59898;52.786;6.892;2023-01-25T20:02:22;87.22;;;38.22;;
52668;SDS011;59898;52.786;6.892;2023-01-25T20:05:43;91.47;;;40.67;;
52668;SDS011;59898;52.786;6.892;2023-01-25T20:09:03;92.85;;;38.90;;
52668;SDS011;59898;52.786;6.892;2023-01-25T20:12:24;96.97;;;40.33;;
52668;SDS011;59898;52.786;6.892;2023-01-25T20:15:45;99.25;;;40.13;;
52668;SDS011;59898;52.786;6.892;2023-01-25T20:19:06;99.40;;;44.67;;
52668;SDS011;59898;52.786;6.892;2023-01-25T20:22:29;93.90;;;42.30;;
52668;SDS011;59898;52.786;6.892;2023-01-25T20:26:00;91.90;;;38.75;;
52668;SDS011;59898;52.786;6.892;2023-01-25T20:32:44;89.78;;;40.35;;
52668;SDS011;59898;52.786;6.892;2023-01-25T20:36:05;81.20;;;37.10;;
52668;SDS011;59898;52.786;6.892;2023-01-25T20:39:26;81.93;;;40.65;;
52668;SDS011;59898;52.786;6.892;2023-01-25T20:42:47;77.20;;;31.88;;
52668;SDS011;59898;52.786;6.892;2023-01-25T20:46:07;79.55;;;35.00;;
52668;SDS011;59898;52.786;6.892;2023-01-25T20:49:28;100.55;;;40.63;;
52668;SDS011;59898;52.786;6.892;2023-01-25T20:52:49;86.78;;;40.33;;
52668;SDS011;59898;52.786;6.892;2023-01-25T20:56:10;101.85;;;43.00;;
52668;SDS011;59898;52.786;6.892;2023-01-25T20:59:32;101.22;;;40.45;;
52668;SDS011;59898;52.786;6.892;2023-01-25T21:02:53;93.82;;;38.95;;
52668;SDS011;59898;52.786;6.892;2023-01-25T21:06:14;82.53;;;37.83;;
52668;SDS011;59898;52.786;6.892;2023-01-25T21:09:35;86.65;;;37.92;;
52668;SDS011;59898;52.786;6.892;2023-01-25T21:12:56;93.28;;;36.60;;
52668;SDS011;59898;52.786;6.892;2023-01-25T21:16:17;100.72;;;40.17;;
52668;SDS011;59898;52.786;6.892;2023-01-25T21:19:40;82.72;;;38.17;;
52668;SDS011;59898;52.786;6.892;2023-01-25T21:23:01;88.07;;;40.05;;
52668;SDS011;59898;52.786;6.892;2023-01-25T21:26:22;71.28;;;30.45;;
52668;SDS011;59898;52.786;6.892;2023-01-25T21:29:44;91.70;;;38.90;;
52668;SDS011;59898;52.786;6.892;2023-01-25T21:33:05;72.13;;;31.48;;
52668;SDS011;59898;52.786;6.892;2023-01-25T21:36:28;89.63;;;40.53;;
52668;SDS011;59898;52.786;6.892;2023-01-25T21:39:48;83.38;;;38.28;;
52668;SDS011;59898;52.786;6.892;2023-01-25T21:43:09;85.22;;;38.83;;